createdAt,value
2019-02-20T00:00:05.779Z,1014.26
2019-02-20T00:01:05.795Z,1014.28
2019-02-20T00:02:05.786Z,1014.29
2019-02-20T00:03:05.788Z,1014.28
2019-02-20T00:04:05.798Z,1014.30
2019-02-20T00:05:05.798Z,1014.27
2019-02-20T00:06:05.804Z,1014.29
2019-02-20T00:07:05.798Z,1014.32
2019-02-20T00:08:05.806Z,1014.26
2019-02-20T00:09:05.805Z,1014.29
2019-02-20T00:10:05.867Z,1014.26
2019-02-20T00:11:05.814Z,1014.27
2019-02-20T00:12:05.814Z,1014.30
2019-02-20T00:13:05.824Z,1014.28
2019-02-20T00:14:05.824Z,1014.28
2019-02-20T00:15:05.825Z,1014.30
2019-02-20T00:16:05.834Z,1014.31
2019-02-20T00:17:05.845Z,1014.29
2019-02-20T00:18:06.748Z,1014.31
2019-02-20T00:19:05.845Z,1014.22
2019-02-20T00:20:05.848Z,1014.28
2019-02-20T00:21:05.849Z,1014.28
2019-02-20T00:22:05.849Z,1014.38
2019-02-20T00:23:05.852Z,1014.32
2019-02-20T00:24:05.866Z,1014.38
2019-02-20T00:25:05.861Z,1014.41
2019-02-20T00:26:05.862Z,1014.43
2019-02-20T00:27:05.867Z,1014.43
2019-02-20T00:28:05.870Z,1014.42
2019-02-20T00:29:05.879Z,1014.40
2019-02-20T00:30:05.897Z,1014.44
2019-02-20T00:31:05.889Z,1014.46
2019-02-20T00:32:05.880Z,1014.45
2019-02-20T00:33:05.896Z,1014.45
2019-02-20T00:34:05.891Z,1014.46
2019-02-20T00:35:05.905Z,1014.45
2019-02-20T00:36:05.899Z,1014.42
2019-02-20T00:37:05.907Z,1014.46
2019-02-20T00:38:05.908Z,1014.41
2019-02-20T00:39:05.912Z,1014.43
2019-02-20T00:40:05.925Z,1014.38
2019-02-20T00:41:05.919Z,1014.39
2019-02-20T00:42:05.914Z,1014.41
2019-02-20T00:43:05.926Z,1014.39
2019-02-20T00:44:05.930Z,1014.36
2019-02-20T00:45:05.935Z,1014.40
2019-02-20T00:46:05.931Z,1014.38
2019-02-20T00:47:05.931Z,1014.38
2019-02-20T00:48:05.941Z,1014.40
2019-02-20T00:49:05.940Z,1014.41
2019-02-20T00:50:05.941Z,1014.46
2019-02-20T00:51:05.937Z,1014.43
2019-02-20T00:52:05.949Z,1014.43
2019-02-20T00:53:05.954Z,1014.45
2019-02-20T00:54:05.964Z,1014.46
2019-02-20T00:55:05.955Z,1014.44
2019-02-20T00:56:05.961Z,1014.42
2019-02-20T00:57:05.968Z,1014.43
2019-02-20T00:58:05.979Z,1014.41
2019-02-20T00:59:05.976Z,1014.41
2019-02-20T01:00:05.990Z,1014.46
2019-02-20T01:01:05.982Z,1014.46
2019-02-20T01:02:05.979Z,1014.46
2019-02-20T01:03:05.990Z,1014.48
2019-02-20T01:04:05.988Z,1014.52
2019-02-20T01:05:05.998Z,1014.50
2019-02-20T01:06:05.999Z,1014.49
2019-02-20T01:07:05.999Z,1014.47
2019-02-20T01:08:06.005Z,1014.50
2019-02-20T01:09:06.015Z,1014.47
2019-02-20T01:10:06.008Z,1014.49
2019-02-20T01:11:06.010Z,1014.50
2019-02-20T01:12:06.013Z,1014.47
2019-02-20T01:13:06.022Z,1014.50
2019-02-20T01:14:06.083Z,1014.50
2019-02-20T01:15:06.021Z,1014.49
2019-02-20T01:16:06.044Z,1014.51
2019-02-20T01:17:06.032Z,1014.49
2019-02-20T01:18:06.033Z,1014.46
2019-02-20T01:19:06.039Z,1014.43
2019-02-20T01:20:06.038Z,1014.48
2019-02-20T01:21:06.049Z,1014.48
2019-02-20T01:22:06.042Z,1014.47
2019-02-20T01:23:06.067Z,1014.42
2019-02-20T01:24:06.056Z,1014.47
2019-02-20T01:25:06.063Z,1014.48
2019-02-20T01:26:06.062Z,1014.46
2019-02-20T01:27:06.061Z,1014.47
2019-02-20T01:28:06.072Z,1014.45
2019-02-20T01:29:06.073Z,1014.46
2019-02-20T01:30:06.077Z,1014.50
2019-02-20T01:31:06.077Z,1014.50
2019-02-20T01:32:06.090Z,1014.48
2019-02-20T01:33:06.097Z,1014.47
2019-02-20T01:34:06.094Z,1014.45
2019-02-20T01:35:06.081Z,1014.40
2019-02-20T01:36:06.093Z,1014.44
2019-02-20T01:37:06.100Z,1014.44
2019-02-20T01:38:06.103Z,1014.48
2019-02-20T01:39:06.110Z,1014.47
2019-02-20T01:40:06.106Z,1014.41
2019-02-20T01:41:06.116Z,1014.44
2019-02-20T01:42:06.122Z,1014.48
2019-02-20T01:43:06.127Z,1014.46
2019-02-20T01:44:06.121Z,1014.49
2019-02-20T01:45:06.126Z,1014.49
2019-02-20T01:46:06.153Z,1014.47
2019-02-20T01:47:06.141Z,1014.48
2019-02-20T01:48:06.144Z,1014.48
2019-02-20T01:49:06.145Z,1014.46
2019-02-20T01:50:06.140Z,1014.50
2019-02-20T01:51:06.151Z,1014.48
2019-02-20T01:52:06.156Z,1014.50
2019-02-20T01:53:10.285Z,1014.50
2019-02-20T01:54:06.153Z,1014.51
2019-02-20T01:55:06.164Z,1014.46
2019-02-20T01:56:06.167Z,1014.49
2019-02-20T01:57:06.179Z,1014.47
2019-02-20T01:58:06.182Z,1014.44
2019-02-20T01:59:06.178Z,1014.46
2019-02-20T02:00:06.180Z,1014.45
2019-02-20T02:01:06.184Z,1014.46
2019-02-20T02:02:06.186Z,1014.49
2019-02-20T02:03:06.192Z,1014.48
2019-02-20T02:04:06.199Z,1014.49
2019-02-20T02:05:14.548Z,1014.48
2019-02-20T02:06:06.202Z,1014.50
2019-02-20T02:07:06.207Z,1014.45
2019-02-20T02:08:06.217Z,1014.47
2019-02-20T02:09:06.212Z,1014.50
2019-02-20T02:10:06.228Z,1014.51
2019-02-20T02:11:06.213Z,1014.49
2019-02-20T02:12:06.225Z,1014.50
2019-02-20T02:13:06.235Z,1014.49
2019-02-20T02:14:06.230Z,1014.47
2019-02-20T02:15:06.246Z,1014.49
2019-02-20T02:16:06.243Z,1014.49
2019-02-20T02:17:06.254Z,1014.50
2019-02-20T02:18:06.254Z,1014.45
2019-02-20T02:19:06.249Z,1014.47
2019-02-20T02:20:06.250Z,1014.44
2019-02-20T02:21:06.279Z,1014.46
2019-02-20T02:22:06.258Z,1014.37
2019-02-20T02:23:06.265Z,1014.40
2019-02-20T02:24:06.269Z,1014.41
2019-02-20T02:25:06.268Z,1014.42
2019-02-20T02:26:10.897Z,1014.41
2019-02-20T02:27:06.271Z,1014.42
2019-02-20T02:28:06.289Z,1014.39
2019-02-20T02:29:06.280Z,1014.40
2019-02-20T02:30:06.295Z,1014.37
2019-02-20T02:31:06.311Z,1014.35
2019-02-20T02:32:06.297Z,1014.32
2019-02-20T02:33:06.304Z,1014.35
2019-02-20T02:34:06.359Z,1014.31
2019-02-20T02:35:06.422Z,1014.29
2019-02-20T02:36:06.424Z,1014.27
2019-02-20T02:37:06.319Z,1014.26
2019-02-20T02:38:06.367Z,1014.23
2019-02-20T02:39:06.454Z,1014.21
2019-02-20T02:40:06.515Z,1014.22
2019-02-20T02:41:06.372Z,1014.19
2019-02-20T02:42:06.355Z,1014.25
2019-02-20T02:43:06.340Z,1014.21
2019-02-20T02:44:06.344Z,1014.24
2019-02-20T02:45:06.343Z,1014.24
2019-02-20T02:46:06.351Z,1014.25
2019-02-20T02:47:06.350Z,1014.24
2019-02-20T02:48:06.413Z,1014.26
2019-02-20T02:49:06.357Z,1014.22
2019-02-20T02:50:06.365Z,1014.25
2019-02-20T02:51:06.370Z,1014.19
2019-02-20T02:52:06.378Z,1014.18
2019-02-20T02:53:06.377Z,1014.17
2019-02-20T02:54:06.378Z,1014.20
2019-02-20T02:55:06.381Z,1014.22
2019-02-20T02:56:06.393Z,1014.20
2019-02-20T02:57:06.388Z,1014.21
2019-02-20T02:58:06.391Z,1014.21
2019-02-20T02:59:06.399Z,1014.24
2019-02-20T03:00:06.408Z,1014.19
2019-02-20T03:01:06.402Z,1014.27
2019-02-20T03:02:06.410Z,1014.25
2019-02-20T03:03:06.411Z,1014.25
2019-02-20T03:04:06.412Z,1014.22
2019-02-20T03:05:06.420Z,1014.28
2019-02-20T03:06:06.424Z,1014.29
2019-02-20T03:07:06.430Z,1014.26
2019-02-20T03:08:06.431Z,1014.24
2019-02-20T03:09:06.431Z,1014.25
2019-02-20T03:10:06.440Z,1014.28
2019-02-20T03:11:06.442Z,1014.27
2019-02-20T03:12:06.446Z,1014.29
2019-02-20T03:13:06.449Z,1014.29
2019-02-20T03:14:06.452Z,1014.29
2019-02-20T03:15:06.459Z,1014.29
2019-02-20T03:16:06.454Z,1014.29
2019-02-20T03:17:06.466Z,1014.31
2019-02-20T03:18:06.465Z,1014.35
2019-02-20T03:19:06.471Z,1014.35
2019-02-20T03:20:06.486Z,1014.33
2019-02-20T03:21:06.480Z,1014.34
2019-02-20T03:22:06.478Z,1014.32
2019-02-20T03:23:06.543Z,1014.32
2019-02-20T03:24:06.491Z,1014.31
2019-02-20T03:25:06.499Z,1014.27
2019-02-20T03:26:06.494Z,1014.30
2019-02-20T03:27:06.511Z,1014.34
2019-02-20T03:28:06.501Z,1014.32
2019-02-20T03:29:06.509Z,1014.32
2019-02-20T03:30:06.508Z,1014.30
2019-02-20T03:31:06.522Z,1014.31
2019-02-20T03:32:06.518Z,1014.27
2019-02-20T03:33:06.587Z,1014.30
2019-02-20T03:34:08.977Z,1014.31
2019-02-20T03:35:06.525Z,1014.33
2019-02-20T03:36:06.531Z,1014.37
2019-02-20T03:37:06.539Z,1014.31
2019-02-20T03:38:06.533Z,1014.32
2019-02-20T03:39:06.551Z,1014.32
2019-02-20T03:40:06.547Z,1014.36
2019-02-20T03:41:06.559Z,1014.33
2019-02-20T03:42:06.565Z,1014.35
2019-02-20T03:43:06.559Z,1014.33
2019-02-20T03:44:06.562Z,1014.34
2019-02-20T03:45:06.562Z,1014.34
2019-02-20T03:46:06.572Z,1014.38
2019-02-20T03:47:06.572Z,1014.37
2019-02-20T03:48:06.581Z,1014.41
2019-02-20T03:49:06.582Z,1014.41
2019-02-20T03:50:06.586Z,1014.41
2019-02-20T03:51:06.588Z,1014.40
2019-02-20T03:52:06.594Z,1014.35
2019-02-20T03:53:06.599Z,1014.43
2019-02-20T03:54:06.597Z,1014.38
2019-02-20T03:55:06.592Z,1014.40
2019-02-20T03:56:06.611Z,1014.41
2019-02-20T03:57:06.612Z,1014.42
2019-02-20T03:58:06.615Z,1014.41
2019-02-20T03:59:06.611Z,1014.40
2019-02-20T04:00:06.620Z,1014.38
2019-02-20T04:01:06.627Z,1014.42
2019-02-20T04:02:06.628Z,1014.43
2019-02-20T04:03:06.629Z,1014.44
2019-02-20T04:04:06.635Z,1014.45
2019-02-20T04:05:06.644Z,1014.49
2019-02-20T04:06:06.646Z,1014.46
2019-02-20T04:07:06.649Z,1014.46
2019-02-20T04:08:06.652Z,1014.47
2019-02-20T04:09:06.659Z,1014.46
2019-02-20T04:10:08.994Z,1014.47
2019-02-20T04:11:06.668Z,1014.49
2019-02-20T04:12:06.664Z,1014.48
2019-02-20T04:13:06.677Z,1014.52
2019-02-20T04:14:06.673Z,1014.49
2019-02-20T04:15:06.676Z,1014.53
2019-02-20T04:16:06.684Z,1014.53
2019-02-20T04:17:06.692Z,1014.47
2019-02-20T04:18:06.690Z,1014.43
2019-02-20T04:19:06.695Z,1014.40
2019-02-20T04:20:06.708Z,1014.42
2019-02-20T04:21:06.702Z,1014.41
2019-02-20T04:22:06.706Z,1014.43
2019-02-20T04:23:06.706Z,1014.37
2019-02-20T04:24:06.719Z,1014.40
2019-02-20T04:25:06.719Z,1014.39
2019-02-20T04:26:06.718Z,1014.35
2019-02-20T04:27:06.720Z,1014.42
2019-02-20T04:28:06.730Z,1014.40
2019-02-20T04:29:06.732Z,1014.39
2019-02-20T04:30:06.732Z,1014.36
2019-02-20T04:31:06.740Z,1014.38
2019-02-20T04:32:06.740Z,1014.42
2019-02-20T04:33:06.748Z,1014.40
2019-02-20T04:34:06.746Z,1014.41
2019-02-20T04:35:06.753Z,1014.39
2019-02-20T04:36:06.753Z,1014.41
2019-02-20T04:37:06.763Z,1014.40
2019-02-20T04:38:06.762Z,1014.45
2019-02-20T04:39:06.769Z,1014.44
2019-02-20T04:40:06.776Z,1014.41
2019-02-20T04:41:06.782Z,1014.41
2019-02-20T04:42:06.780Z,1014.37
2019-02-20T04:43:06.783Z,1014.39
2019-02-20T04:44:06.787Z,1014.36
2019-02-20T04:45:06.798Z,1014.35
2019-02-20T04:46:06.796Z,1014.36
2019-02-20T04:47:06.794Z,1014.35
2019-02-20T04:48:06.801Z,1014.36
2019-02-20T04:49:06.807Z,1014.42
2019-02-20T04:50:06.812Z,1014.44
2019-02-20T04:51:06.821Z,1014.44
2019-02-20T04:52:06.817Z,1014.41
2019-02-20T04:53:06.816Z,1014.43
2019-02-20T04:54:13.268Z,1014.47
2019-02-20T04:55:06.827Z,1014.42
2019-02-20T04:56:06.832Z,1014.41
2019-02-20T04:57:06.844Z,1014.43
2019-02-20T04:58:06.839Z,1014.43
2019-02-20T04:59:06.839Z,1014.41
2019-02-20T05:00:06.848Z,1014.45
2019-02-20T05:01:06.852Z,1014.40
2019-02-20T05:02:06.855Z,1014.40
2019-02-20T05:03:06.860Z,1014.41
2019-02-20T05:04:06.861Z,1014.40
2019-02-20T05:05:06.881Z,1014.37
2019-02-20T05:06:06.879Z,1014.47
2019-02-20T05:07:06.878Z,1014.44
2019-02-20T05:08:06.877Z,1014.46
2019-02-20T05:09:06.883Z,1014.48
2019-02-20T05:10:06.885Z,1014.48
2019-02-20T05:11:06.886Z,1014.51
2019-02-20T05:12:06.893Z,1014.48
2019-02-20T05:13:06.906Z,1014.51
2019-02-20T05:14:06.901Z,1014.51
2019-02-20T05:15:06.904Z,1014.49
2019-02-20T05:16:06.907Z,1014.46
2019-02-20T05:17:06.912Z,1014.46
2019-02-20T05:18:06.917Z,1014.50
2019-02-20T05:19:06.914Z,1014.50
2019-02-20T05:20:06.919Z,1014.51
2019-02-20T05:21:06.922Z,1014.48
2019-02-20T05:22:06.929Z,1014.44
2019-02-20T05:23:06.934Z,1014.46
2019-02-20T05:24:06.930Z,1014.44
2019-02-20T05:25:06.948Z,1014.43
2019-02-20T05:26:06.943Z,1014.47
2019-02-20T05:27:06.941Z,1014.45
2019-02-20T05:28:06.941Z,1014.44
2019-02-20T05:29:06.954Z,1014.46
2019-02-20T05:30:06.959Z,1014.47
2019-02-20T05:31:06.970Z,1014.47
2019-02-20T05:32:06.970Z,1014.43
2019-02-20T05:33:06.978Z,1014.42
2019-02-20T05:34:06.968Z,1014.45
2019-02-20T05:35:06.973Z,1014.41
2019-02-20T05:36:07.005Z,1014.38
2019-02-20T05:37:06.979Z,1014.43
2019-02-20T05:38:06.983Z,1014.43
2019-02-20T05:39:06.991Z,1014.39
2019-02-20T05:40:06.991Z,1014.40
2019-02-20T05:41:06.998Z,1014.40
2019-02-20T05:42:07.000Z,1014.39
2019-02-20T05:43:07.008Z,1014.37
2019-02-20T05:44:07.008Z,1014.37
2019-02-20T05:45:07.011Z,1014.30
2019-02-20T05:46:07.012Z,1014.32
2019-02-20T05:47:07.017Z,1014.34
2019-02-20T05:48:07.020Z,1014.34
2019-02-20T05:49:07.025Z,1014.37
2019-02-20T05:50:07.038Z,1014.33
2019-02-20T05:51:07.030Z,1014.37
2019-02-20T05:52:07.029Z,1014.41
2019-02-20T05:53:07.052Z,1014.39
2019-02-20T05:54:07.042Z,1014.41
2019-02-20T05:55:07.042Z,1014.38
2019-02-20T05:56:07.049Z,1014.38
2019-02-20T05:57:07.052Z,1014.40
2019-02-20T05:58:07.060Z,1014.39
2019-02-20T05:59:07.060Z,1014.42
2019-02-20T06:00:07.066Z,1014.40
2019-02-20T06:01:07.062Z,1014.42
2019-02-20T06:02:07.069Z,1014.36
2019-02-20T06:03:07.182Z,1014.42
2019-02-20T06:04:07.077Z,1014.42
2019-02-20T06:05:07.081Z,1014.47
2019-02-20T06:06:07.079Z,1014.51
2019-02-20T06:07:07.092Z,1014.49
2019-02-20T06:08:07.120Z,1014.50
2019-02-20T06:09:07.093Z,1014.51
2019-02-20T06:10:07.098Z,1014.49
2019-02-20T06:11:14.384Z,1014.50
2019-02-20T06:12:07.114Z,1014.48
2019-02-20T06:13:07.117Z,1014.49
2019-02-20T06:14:07.109Z,1014.52
2019-02-20T06:15:07.108Z,1014.51
2019-02-20T06:16:07.119Z,1014.52
2019-02-20T06:17:07.127Z,1014.54
2019-02-20T06:18:07.124Z,1014.56
2019-02-20T06:19:07.112Z,1014.56
2019-02-20T06:20:07.128Z,1014.59
2019-02-20T06:21:07.133Z,1014.56
2019-02-20T06:22:07.132Z,1014.57
2019-02-20T06:23:07.135Z,1014.58
2019-02-20T06:24:07.141Z,1014.61
2019-02-20T06:25:07.149Z,1014.60
2019-02-20T06:26:07.149Z,1014.65
2019-02-20T06:27:07.920Z,1014.63
2019-02-20T06:28:07.165Z,1014.64
2019-02-20T06:29:07.156Z,1014.64
2019-02-20T06:30:07.159Z,1014.66
2019-02-20T06:31:07.166Z,1014.64
2019-02-20T06:32:07.187Z,1014.66
2019-02-20T06:33:07.172Z,1014.66
2019-02-20T06:34:07.169Z,1014.67
2019-02-20T06:35:07.177Z,1014.72
2019-02-20T06:36:07.187Z,1014.70
2019-02-20T06:37:07.193Z,1014.75
2019-02-20T06:38:10.517Z,1014.72
2019-02-20T06:39:07.191Z,1014.80
2019-02-20T06:40:07.195Z,1014.81
2019-02-20T06:41:07.203Z,1014.76
2019-02-20T06:42:07.225Z,1014.78
2019-02-20T06:43:07.202Z,1014.77
2019-02-20T06:44:07.227Z,1014.78
2019-02-20T06:45:07.210Z,1014.79
2019-02-20T06:46:07.211Z,1014.76
2019-02-20T06:47:07.221Z,1014.80
2019-02-20T06:48:07.227Z,1014.82
2019-02-20T06:49:07.222Z,1014.82
2019-02-20T06:50:07.221Z,1014.85
2019-02-20T06:51:07.232Z,1014.85
2019-02-20T06:52:07.232Z,1014.86
2019-02-20T06:53:07.233Z,1014.90
2019-02-20T06:54:07.237Z,1014.92
2019-02-20T06:55:07.243Z,1014.90
2019-02-20T06:56:07.244Z,1014.95
2019-02-20T06:57:07.255Z,1014.97
2019-02-20T06:58:07.255Z,1015.01
2019-02-20T06:59:07.256Z,1015.02
2019-02-20T07:00:07.263Z,1015.03
2019-02-20T07:01:07.267Z,1015.05
2019-02-20T07:02:07.283Z,1015.07
2019-02-20T07:03:07.265Z,1015.10
2019-02-20T07:04:07.276Z,1015.06
2019-02-20T07:05:07.275Z,1015.13
2019-02-20T07:06:07.277Z,1015.14
2019-02-20T07:07:07.292Z,1015.14
2019-02-20T07:08:07.287Z,1015.17
2019-02-20T07:09:07.283Z,1015.17
2019-02-20T07:10:07.289Z,1015.16
2019-02-20T07:11:07.315Z,1015.20
2019-02-20T07:12:07.298Z,1015.19
2019-02-20T07:13:07.322Z,1015.26
2019-02-20T07:14:07.312Z,1015.26
2019-02-20T07:15:07.312Z,1015.27
2019-02-20T07:16:07.315Z,1015.26
2019-02-20T07:17:07.322Z,1015.30
2019-02-20T07:18:07.319Z,1015.30
2019-02-20T07:19:07.342Z,1015.34
2019-02-20T07:20:07.330Z,1015.35
2019-02-20T07:21:07.334Z,1015.35
2019-02-20T07:22:07.338Z,1015.34
2019-02-20T07:23:07.341Z,1015.32
2019-02-20T07:24:07.346Z,1015.29
2019-02-20T07:25:07.351Z,1015.34
2019-02-20T07:26:07.387Z,1015.33
2019-02-20T07:27:28.367Z,1015.36
2019-02-20T07:28:07.361Z,1015.38
2019-02-20T07:29:07.369Z,1015.41
2019-02-20T07:30:07.372Z,1015.44
2019-02-20T07:31:07.369Z,1015.49
2019-02-20T07:32:07.367Z,1015.45
2019-02-20T07:33:07.379Z,1015.48
2019-02-20T07:34:07.385Z,1015.49
2019-02-20T07:35:07.392Z,1015.58
2019-02-20T07:36:07.392Z,1015.57
2019-02-20T07:37:07.408Z,1015.56
2019-02-20T07:38:07.403Z,1015.59
2019-02-20T07:39:07.405Z,1015.63
2019-02-20T07:40:07.409Z,1015.62
2019-02-20T07:41:07.414Z,1015.62
2019-02-20T07:42:07.430Z,1015.67
2019-02-20T07:43:07.430Z,1015.63
2019-02-20T07:44:07.427Z,1015.63
2019-02-20T07:45:07.439Z,1015.63
2019-02-20T07:46:07.437Z,1015.64
2019-02-20T07:47:07.436Z,1015.64
2019-02-20T07:48:07.482Z,1015.64
2019-02-20T07:49:07.447Z,1015.66
2019-02-20T07:50:07.444Z,1015.69
2019-02-20T07:51:07.456Z,1015.74
2019-02-20T07:52:07.457Z,1015.74
2019-02-20T07:53:07.460Z,1015.76
2019-02-20T07:54:07.473Z,1015.76
2019-02-20T07:55:13.208Z,1015.78
2019-02-20T07:56:07.476Z,1015.78
2019-02-20T07:57:07.494Z,1015.79
2019-02-20T07:58:07.484Z,1015.76
2019-02-20T07:59:07.496Z,1015.86
2019-02-20T08:00:07.492Z,1015.89
2019-02-20T08:01:07.500Z,1015.92
2019-02-20T08:02:07.513Z,1015.98
2019-02-20T08:03:07.513Z,1015.99
2019-02-20T08:04:07.511Z,1016.03
2019-02-20T08:05:07.552Z,1016.00
2019-02-20T08:06:07.524Z,1016.06
2019-02-20T08:07:07.521Z,1016.11
2019-02-20T08:08:07.529Z,1016.14
2019-02-20T08:09:07.533Z,1016.19
2019-02-20T08:10:07.536Z,1016.21
2019-02-20T08:11:07.547Z,1016.26
2019-02-20T08:12:07.585Z,1016.31
2019-02-20T08:13:09.459Z,1016.36
2019-02-20T08:14:07.564Z,1016.37
2019-02-20T08:15:07.564Z,1016.43
2019-02-20T08:16:07.573Z,1016.48
2019-02-20T08:17:07.590Z,1016.44
2019-02-20T08:18:07.589Z,1016.46
2019-02-20T08:19:07.584Z,1016.56
2019-02-20T08:20:07.600Z,1016.55
2019-02-20T08:21:07.597Z,1016.52
2019-02-20T08:22:07.603Z,1016.47
2019-02-20T08:23:07.610Z,1016.41
2019-02-20T08:24:07.622Z,1016.37
2019-02-20T08:25:07.625Z,1016.41
2019-02-20T08:26:07.626Z,1016.44
2019-02-20T08:27:07.636Z,1016.44
2019-02-20T08:28:07.641Z,1016.41
2019-02-20T08:29:07.647Z,1016.44
2019-02-20T08:30:07.655Z,1016.47
2019-02-20T08:31:07.661Z,1016.48
2019-02-20T08:32:07.671Z,1016.42
2019-02-20T08:33:07.668Z,1016.42
2019-02-20T08:34:07.668Z,1016.46
2019-02-20T08:35:07.698Z,1016.44
2019-02-20T08:36:07.690Z,1016.43
2019-02-20T08:37:07.695Z,1016.47
2019-02-20T08:38:07.702Z,1016.41
2019-02-20T08:39:07.707Z,1016.43
2019-02-20T08:40:07.716Z,1016.44
2019-02-20T08:41:07.729Z,1016.53
2019-02-20T08:42:07.728Z,1016.54
2019-02-20T08:43:07.751Z,1016.54
2019-02-20T08:44:07.737Z,1016.59
2019-02-20T08:45:07.750Z,1016.57
2019-02-20T08:46:07.750Z,1016.57
2019-02-20T08:47:07.755Z,1016.53
2019-02-20T08:48:07.761Z,1016.57
2019-02-20T08:49:07.766Z,1016.55
2019-02-20T08:50:07.775Z,1016.58
2019-02-20T08:51:07.792Z,1016.60
2019-02-20T08:52:07.782Z,1016.65
2019-02-20T08:53:07.800Z,1016.55
2019-02-20T08:54:07.791Z,1016.62
2019-02-20T08:55:07.804Z,1016.56
2019-02-20T08:56:07.822Z,1016.63
2019-02-20T08:57:07.819Z,1016.70
2019-02-20T08:58:07.830Z,1016.67
2019-02-20T08:59:07.825Z,1016.69
2019-02-20T09:00:07.833Z,1016.69
2019-02-20T09:01:07.843Z,1016.70
2019-02-20T09:02:07.848Z,1016.73
2019-02-20T09:03:07.847Z,1016.69
2019-02-20T09:04:07.859Z,1016.67
2019-02-20T09:05:07.870Z,1016.67
2019-02-20T09:06:07.877Z,1016.71
2019-02-20T09:07:07.869Z,1016.78
2019-02-20T09:08:07.882Z,1016.84
2019-02-20T09:09:07.936Z,1016.95
2019-02-20T09:10:07.909Z,1017.02
2019-02-20T09:11:07.908Z,1017.06
2019-02-20T09:12:07.906Z,1017.09
2019-02-20T09:14:07.919Z,1017.17
2019-02-20T09:15:07.934Z,1017.21
2019-02-20T09:16:07.940Z,1017.22
2019-02-20T09:17:07.950Z,1017.11
2019-02-20T09:18:07.952Z,1017.06
2019-02-20T09:19:07.963Z,1017.06
2019-02-20T09:20:07.962Z,1016.98
2019-02-20T09:21:07.977Z,1017.00
2019-02-20T09:22:07.975Z,1017.01
2019-02-20T09:23:07.983Z,1017.01
2019-02-20T09:24:07.984Z,1017.02
2019-02-20T09:25:08.005Z,1017.00
2019-02-20T09:26:08.013Z,1017.06
2019-02-20T09:27:08.019Z,1017.02
2019-02-20T09:28:08.023Z,1017.08
2019-02-20T09:29:08.024Z,1017.01
2019-02-20T09:30:08.042Z,1016.98
2019-02-20T09:31:08.057Z,1017.04
2019-02-20T09:32:08.054Z,1016.99
2019-02-20T09:33:08.072Z,1016.99
2019-02-20T09:34:08.087Z,1016.94
2019-02-20T09:35:08.094Z,1016.93
2019-02-20T09:36:08.085Z,1016.94
2019-02-20T09:37:08.102Z,1016.91
2019-02-20T09:38:08.105Z,1017.06
2019-02-20T09:39:08.109Z,1017.07
2019-02-20T09:40:08.114Z,1017.29
2019-02-20T09:41:08.130Z,1017.47
2019-02-20T09:42:08.131Z,1017.75
2019-02-20T09:43:08.141Z,1017.77
2019-02-20T09:44:08.152Z,1017.77
2019-02-20T09:45:08.154Z,1017.71
2019-02-20T09:46:08.161Z,1017.70
2019-02-20T09:47:08.172Z,1017.58
2019-02-20T09:48:08.182Z,1017.50
2019-02-20T09:49:08.190Z,1017.33
2019-02-20T09:50:08.209Z,1017.26
2019-02-20T09:51:08.226Z,1017.29
2019-02-20T09:52:08.221Z,1017.39
2019-02-20T09:53:08.228Z,1017.46
2019-02-20T09:54:08.241Z,1017.48
2019-02-20T09:55:08.250Z,1017.43
2019-02-20T09:56:08.261Z,1017.49
2019-02-20T09:57:08.271Z,1017.56
2019-02-20T09:58:08.286Z,1017.66
2019-02-20T09:59:08.283Z,1017.68
2019-02-20T10:00:08.298Z,1017.74
2019-02-20T10:01:08.313Z,1017.68
2019-02-20T10:02:08.323Z,1017.47
2019-02-20T10:03:08.330Z,1017.40
2019-02-20T10:04:08.350Z,1017.39
2019-02-20T10:05:08.350Z,1017.36
2019-02-20T10:06:08.361Z,1017.39
2019-02-20T10:07:08.371Z,1017.54
2019-02-20T10:08:08.383Z,1017.59
2019-02-20T10:09:08.391Z,1017.69
2019-02-20T10:10:08.393Z,1017.68
2019-02-20T10:11:08.415Z,1017.75
2019-02-20T10:12:08.423Z,1017.70
2019-02-20T10:13:10.928Z,1017.77
2019-02-20T10:14:08.455Z,1017.76
2019-02-20T10:15:08.451Z,1017.72
2019-02-20T10:16:08.468Z,1017.77
2019-02-20T10:17:08.476Z,1017.67
2019-02-20T10:18:08.492Z,1017.72
2019-02-20T10:19:08.499Z,1017.73
2019-02-20T10:20:08.518Z,1017.75
2019-02-20T10:21:08.520Z,1017.71
2019-02-20T10:22:08.530Z,1017.67
2019-02-20T10:23:08.539Z,1017.74
2019-02-20T10:24:08.553Z,1017.81
2019-02-20T10:25:08.568Z,1017.95
2019-02-20T10:26:08.583Z,1017.99
2019-02-20T10:27:08.586Z,1017.89
2019-02-20T10:28:08.593Z,1017.82
2019-02-20T10:29:08.609Z,1017.68
2019-02-20T10:30:08.609Z,1017.62
2019-02-20T10:31:08.625Z,1017.50
2019-02-20T10:32:08.642Z,1017.45
2019-02-20T10:33:08.648Z,1017.49
2019-02-20T10:34:08.661Z,1017.44
2019-02-20T10:35:08.663Z,1017.53
2019-02-20T10:36:08.678Z,1017.40
2019-02-20T10:37:08.698Z,1017.50
2019-02-20T10:38:08.693Z,1017.47
2019-02-20T10:39:08.708Z,1017.52
2019-02-20T10:40:08.745Z,1017.56
2019-02-20T10:41:08.742Z,1017.59
2019-02-20T10:42:08.767Z,1017.63
2019-02-20T10:43:08.774Z,1017.47
2019-02-20T10:44:08.760Z,1017.43
2019-02-20T10:45:08.763Z,1017.47
2019-02-20T10:46:08.770Z,1017.56
2019-02-20T10:47:08.783Z,1017.51
2019-02-20T10:48:08.791Z,1017.53
2019-02-20T10:49:08.793Z,1017.54
2019-02-20T10:50:08.815Z,1017.51
2019-02-20T10:51:08.820Z,1017.51
2019-02-20T10:52:08.827Z,1017.52
2019-02-20T10:53:08.836Z,1017.51
2019-02-20T10:54:08.854Z,1017.57
2019-02-20T10:55:08.947Z,1017.55
2019-02-20T10:56:09.672Z,1017.57
2019-02-20T10:57:08.891Z,1017.71
2019-02-20T10:58:08.881Z,1017.63
2019-02-20T10:59:08.876Z,1017.67
2019-02-20T11:00:08.901Z,1017.60
2019-02-20T11:01:08.906Z,1017.54
2019-02-20T11:02:08.915Z,1017.61
2019-02-20T11:03:08.922Z,1017.55
2019-02-20T11:04:08.933Z,1017.52
2019-02-20T11:05:08.949Z,1017.53
2019-02-20T11:06:08.953Z,1017.48
2019-02-20T11:07:08.962Z,1017.50
2019-02-20T11:08:08.965Z,1017.57
2019-02-20T11:09:08.981Z,1017.55
2019-02-20T11:10:08.981Z,1017.55
2019-02-20T11:11:08.989Z,1017.44
2019-02-20T11:12:09.003Z,1017.51
2019-02-20T11:13:09.011Z,1017.54
2019-02-20T11:14:09.021Z,1017.58
2019-02-20T11:15:09.039Z,1017.54
2019-02-20T11:16:09.028Z,1017.56
2019-02-20T11:17:09.040Z,1017.51
2019-02-20T11:18:09.052Z,1017.51
2019-02-20T11:19:09.058Z,1017.56
2019-02-20T11:20:09.082Z,1017.58
2019-02-20T11:21:09.074Z,1017.64
2019-02-20T11:22:09.091Z,1017.60
2019-02-20T11:23:09.088Z,1017.64
2019-02-20T11:24:09.101Z,1017.70
2019-02-20T11:25:09.123Z,1017.65
2019-02-20T11:26:17.539Z,1017.66
2019-02-20T11:27:09.124Z,1017.61
2019-02-20T11:28:09.138Z,1017.58
2019-02-20T11:29:09.151Z,1017.64
2019-02-20T11:30:09.151Z,1017.63
2019-02-20T11:31:09.173Z,1017.60
2019-02-20T11:32:09.179Z,1017.56
2019-02-20T11:33:09.189Z,1017.62
2019-02-20T11:34:09.195Z,1017.54
2019-02-20T11:35:09.196Z,1017.59
2019-02-20T11:36:09.224Z,1017.61
2019-02-20T11:37:09.228Z,1017.57
2019-02-20T11:38:09.221Z,1017.56
2019-02-20T11:39:09.227Z,1017.57
2019-02-20T11:40:09.270Z,1017.63
2019-02-20T11:41:09.261Z,1017.64
2019-02-20T11:42:09.255Z,1017.63
2019-02-20T11:43:09.278Z,1017.51
2019-02-20T11:44:09.282Z,1017.44
2019-02-20T11:45:09.296Z,1017.49
2019-02-20T11:46:09.311Z,1017.46
2019-02-20T11:47:09.313Z,1017.50
2019-02-20T11:48:09.320Z,1017.44
2019-02-20T11:49:09.327Z,1017.42
2019-02-20T11:50:09.346Z,1017.56
2019-02-20T11:51:09.354Z,1017.56
2019-02-20T11:52:09.358Z,1017.59
2019-02-20T11:53:09.373Z,1017.58
2019-02-20T11:54:09.379Z,1017.48
2019-02-20T11:55:09.388Z,1017.51
2019-02-20T11:56:09.391Z,1017.43
2019-02-20T11:57:09.400Z,1017.46
2019-02-20T11:58:09.419Z,1017.44
2019-02-20T11:59:09.427Z,1017.38
2019-02-20T12:00:09.435Z,1017.42
2019-02-20T12:01:09.447Z,1017.46
2019-02-20T12:02:09.454Z,1017.52
2019-02-20T12:03:09.461Z,1017.47
2019-02-20T12:04:09.474Z,1017.40
2019-02-20T12:05:09.478Z,1017.37
2019-02-20T12:06:09.497Z,1017.41